Federal Barents — V7FY7 — position and weather

sailwx.info

Track history (hours):
 
Tides and Currents Weather Stations Pressure Air Temp Water Temp Dewpoint Dewpoint Depression Visibility Wind Speed Wind Dir Waves Ship Positions

Federal Barents

Last reported at 2017-Oct-15 10:53 UTC. Time now 2017-Oct-22 08:05 UTC.
Position N 58°46' W 004°28'.

Length 200 m; draft 9.3 m.

Type: Cargo ship. MMSI: 538006419.

Date/timePositionNaut miles runAvg speedWind from/ knotsBaromVisibWave heightAir tempDewpointWater temp
2017-Oct-15 10:53N 58°46' W 004°28'513.2
2017-Oct-15 10:29N 58°46' W 004°17'612.7
2017-Oct-15 10:00N 58°45' W 004°06'612.8
2017-Oct-15 09:30N 58°45' W 003°53'612.2
2017-Oct-15 09:00N 58°44' W 003°42'712.5
2017-Oct-15 08:27N 58°44' W 003°28'612.5
2017-Oct-15 08:00N 58°43' W 003°18'611.4
2017-Oct-15 07:30N 58°43' W 003°07'5 9.3
2017-Oct-15 07:00N 58°40' W 002°59'5 9.3
2017-Oct-15 06:30N 58°37' W 002°53'612.2
2017-Oct-15 06:00N 58°32' W 002°45'713.2
2017-Oct-15 05:30N 58°27' W 002°37'713.3
2017-Oct-15 05:00N 58°23' W 002°27'713.6
2017-Oct-15 04:30N 58°18' W 002°19'713.8
2017-Oct-15 04:00N 58°13' W 002°10'2314.2
2017-Oct-15 02:22N 57°56' W 001°39'514.6
2017-Oct-15 02:00N 57°52' W 001°33'714.8
2017-Oct-15 01:30N 57°47' W 001°23'814.4
2017-Oct-15 00:58N 57°41' W 001°13'39512.8
2017-Oct-13 18:15N 53°46' E 008°10'412.6
2017-Oct-13 17:58N 53°44' E 008°15'511.7
2017-Oct-13 17:30N 53°41' E 008°22'611.0
2017-Oct-13 17:00N 53°37' E 008°29'5 9.1
2017-Oct-13 16:30N 53°33' E 008°33'3 6.3
2017-Oct-13 16:00N 53°30' E 008°31'4 8.2
2017-Oct-13 15:30N 53°26' E 008°30'5 9.1
2017-Oct-13 15:00N 53°22' E 008°30'0 0.8
2017-Oct-13 14:30N 53°21' E 008°30'0 0.0
2017-Oct-13 14:00N 53°21' E 008°30'0 0.0
2017-Oct-13 13:30N 53°21' E 008°30'0 0.0
2017-Oct-13 13:00N 53°21' E 008°30'0 0.0
2017-Oct-13 12:30N 53°21' E 008°30'0 0.0
2017-Oct-13 12:00N 53°21' E 008°30'0 0.0
2017-Oct-13 11:30N 53°21' E 008°30'0 0.0
2017-Oct-13 11:00N 53°21' E 008°30'0 0.0
2017-Oct-13 10:27N 53°21' E 008°30'0 0.0
2017-Oct-13 10:00N 53°21' E 008°30'0 0.0
2017-Oct-13 09:30N 53°21' E 008°30'0 0.0
2017-Oct-13 09:00N 53°21' E 008°30'0 0.0
2017-Oct-13 08:30N 53°21' E 008°30'0 0.0
2017-Oct-13 08:00N 53°21' E 008°30'0 0.0
2017-Oct-13 07:30N 53°21' E 008°30'0 0.0
2017-Oct-13 07:00N 53°21' E 008°30'0 0.0
2017-Oct-13 06:30N 53°21' E 008°30'0 0.0
2017-Oct-13 06:00N 53°21' E 008°30'0 0.0
2017-Oct-13 05:30N 53°21' E 008°30'0 0.0
2017-Oct-13 05:00N 53°21' E 008°30'0 0.0
2017-Oct-13 04:30N 53°21' E 008°30'0 0.0
2017-Oct-13 04:00N 53°21' E 008°30'0 0.0
2017-Oct-13 03:30N 53°21' E 008°30'0 0.0
2017-Oct-13 03:00N 53°21' E 008°30'0 0.0
2017-Oct-13 02:30N 53°21' E 008°30'0 0.0
2017-Oct-13 01:57N 53°21' E 008°30'0 0.0
2017-Oct-13 01:27N 53°21' E 008°30'0 0.0
2017-Oct-13 01:00N 53°21' E 008°30'0 0.0
2017-Oct-13 00:30N 53°21' E 008°30'0 0.0
2017-Oct-13 00:00N 53°21' E 008°30'0 0.0
2017-Oct-12 23:30N 53°21' E 008°30'0 0.0
2017-Oct-12 23:00N 53°21' E 008°30'0 0.0
2017-Oct-12 22:30N 53°21' E 008°30'0 0.0
2017-Oct-12 22:00N 53°21' E 008°30'0 0.0
2017-Oct-12 21:30N 53°21' E 008°30'0 0.0
2017-Oct-12 21:00N 53°21' E 008°30'0 0.0
2017-Oct-12 20:30N 53°21' E 008°30'0 0.0
2017-Oct-12 20:00N 53°21' E 008°30'0 0.0
2017-Oct-12 19:30N 53°21' E 008°30'0 0.0
2017-Oct-12 19:00N 53°21' E 008°30'0 0.0
2017-Oct-12 18:27N 53°21' E 008°30'0 0.0
2017-Oct-12 18:00N 53°21' E 008°30'0 0.0
2017-Oct-12 17:30N 53°21' E 008°30'0 0.0
2017-Oct-12 17:00N 53°21' E 008°30'0 0.0
2017-Oct-12 16:30N 53°21' E 008°30'0 0.0
2017-Oct-12 16:00N 53°21' E 008°30'0 0.0
2017-Oct-12 15:30N 53°21' E 008°30'0 0.0
2017-Oct-12 15:00N 53°21' E 008°30'0 0.0
2017-Oct-12 14:30N 53°21' E 008°30'0 0.0
2017-Oct-12 14:00N 53°21' E 008°30'0 0.0
2017-Oct-12 13:30N 53°21' E 008°30'0 0.0
2017-Oct-12 13:00N 53°21' E 008°30'0 0.0
2017-Oct-12 12:30N 53°21' E 008°30'0 0.0
2017-Oct-12 12:00N 53°21' E 008°30'0 0.0
2017-Oct-12 11:30N 53°21' E 008°30'0 0.0
2017-Oct-12 11:00N 53°21' E 008°30'0 0.0
2017-Oct-12 10:30N 53°21' E 008°30'0 0.0
2017-Oct-12 10:00N 53°21' E 008°30'0 0.0
2017-Oct-12 09:30N 53°21' E 008°30'0 0.0
2017-Oct-12 09:00N 53°21' E 008°30'0 0.0
2017-Oct-12 08:30N 53°21' E 008°30'0 0.0
2017-Oct-12 08:00N 53°21' E 008°30'0 0.0
2017-Oct-12 07:30N 53°21' E 008°30'0 0.0
2017-Oct-12 06:57N 53°21' E 008°30'0 0.0
2017-Oct-12 06:27N 53°21' E 008°30'0 0.0
2017-Oct-12 05:57N 53°21' E 008°30'0 0.0
2017-Oct-12 05:30N 53°21' E 008°30'0 0.0
2017-Oct-12 05:00N 53°21' E 008°30'0 0.0
2017-Oct-12 04:30N 53°21' E 008°30'0 0.0
2017-Oct-12 04:00N 53°21' E 008°30'0 0.0
2017-Oct-12 03:30N 53°21' E 008°30'0 0.0
2017-Oct-12 03:00N 53°21' E 008°30'0 0.0
2017-Oct-12 02:30N 53°21' E 008°30'0 0.0
2017-Oct-12 02:00N 53°21' E 008°30'0 0.0
2017-Oct-12 01:27N 53°21' E 008°30'0 0.0
2017-Oct-12 01:01N 53°21' E 008°30'0 0.2
2017-Oct-12 00:30N 53°22' E 008°30'4 7.0
2017-Oct-12 00:00N 53°25' E 008°30'510.2
2017-Oct-11 23:30N 53°30' E 008°31'4 7.5
2017-Oct-11 23:00N 53°34' E 008°33'5 9.6
2017-Oct-11 22:30N 53°37' E 008°28'611.5
2017-Oct-11 22:00N 53°41' E 008°21'611.9
2017-Oct-11 21:30N 53°45' E 008°13'611.5
2017-Oct-11 21:00N 53°49' E 008°07'612.3
2017-Oct-11 20:30N 53°52' E 007°57'25010.0
2017-Oct-10 19:22N 57°47' E 010°30'411.8
2017-Oct-10 19:01N 57°47' E 010°37'612.1
2017-Oct-10 18:30N 57°48' E 010°49'713.0
2017-Oct-10 18:00N 57°44' E 010°58'714.1
2017-Oct-10 17:30N 57°39' E 011°07'714.1
2017-Oct-10 17:01N 57°34' E 011°17'713.6
2017-Oct-10 16:31N 57°30' E 011°27'714.1
2017-Oct-10 16:00N 57°23' E 011°30'714.1
2017-Oct-10 15:30N 57°16' E 011°34'714.4
2017-Oct-10 15:00N 57°09' E 011°38'2314.1
2017-Oct-10 13:21N 56°48' E 011°53'413.1
2017-Oct-10 13:01N 56°43' E 011°52'714.5
2017-Oct-10 12:30N 56°37' E 011°45'714.1
2017-Oct-10 12:00N 56°31' E 011°38'7611.6
2017-Oct-10 05:26N 55°18' E 011°03'611.8
2017-Oct-10 04:58N 55°12' E 011°06'612.0
2017-Oct-10 04:30N 55°07' E 011°03'612.0
2017-Oct-10 04:00N 55°01' E 011°02'510.9
2017-Oct-10 03:30N 54°57' E 010°55'611.5
2017-Oct-10 03:00N 54°52' E 010°50'611.6
2017-Oct-10 02:30N 54°46' E 010°49'611.3
2017-Oct-10 02:00N 54°41' E 010°47'5 9.6
2017-Oct-10 01:30N 54°38' E 010°54'611.0
2017-Oct-10 01:00N 54°36' E 011°02'612.0
2017-Oct-10 00:30N 54°35' E 011°13'612.9
2017-Oct-10 00:00N 54°32' E 011°23'612.1
2017-Oct-09 23:30N 54°30' E 011°32'612.9
2017-Oct-09 23:00N 54°27' E 011°42'712.3
2017-Oct-09 22:25N 54°23' E 011°52'712.4
2017-Oct-09 21:51N 54°18' E 012°01'10 0.8
2017-Oct-09 10:24N 54°09' E 012°07'0 0.0
2017-Oct-09 09:18N 54°09' E 012°07'0 0.0
2017-Oct-09 00:45N 54°09' E 012°07'0 0.0
2017-Oct-08 08:45N 54°09' E 012°07'0 0.0
2017-Oct-08 08:30N 54°09' E 012°07'0 0.0
2017-Oct-08 08:00N 54°09' E 012°07'0 0.0
2017-Oct-08 05:03N 54°09' E 012°07'0 0.0
2017-Oct-08 02:27N 54°09' E 012°07'0 0.0
2017-Oct-08 01:45N 54°09' E 012°07'0 0.0
2017-Oct-08 01:15N 54°09' E 012°07'0 0.0
2017-Oct-08 01:00N 54°09' E 012°07'0 0.0
2017-Oct-07 15:51N 54°09' E 012°07'0 0.0
2017-Oct-07 14:45N 54°09' E 012°07'0 0.0
2017-Oct-07 14:24N 54°09' E 012°07'0 0.0
2017-Oct-07 13:12N 54°09' E 012°07'0 0.0
2017-Oct-06 17:15N 54°09' E 012°07'0 0.0
2017-Oct-06 15:33N 54°09' E 012°07'0 0.0
2017-Oct-06 15:30N 54°09' E 012°07'0 0.0
2017-Oct-06 15:00N 54°09' E 012°07'6 2.5
2017-Oct-06 12:32N 54°13' E 011°60'0 0.0
2017-Oct-06 12:26N 54°13' E 011°60'0 0.0
2017-Oct-06 11:23N 54°13' E 011°60'0 0.0
2017-Oct-06 10:41N 54°13' E 011°60'0 0.0
2017-Oct-06 10:26N 54°13' E 011°60'0 0.0
2017-Oct-06 09:59N 54°13' E 011°60'0 0.0
2017-Oct-06 09:14N 54°13' E 011°60'0 0.0
2017-Oct-06 08:59N 54°13' E 011°60'0 0.0
2017-Oct-06 07:14N 54°13' E 011°60'0 0.0
2017-Oct-06 06:59N 54°13' E 011°60'0 0.0
2017-Oct-06 03:44N 54°13' E 011°60'0 0.0
2017-Oct-06 03:23N 54°13' E 011°60'0 0.1
2017-Oct-06 02:56N 54°13' E 011°60'0 0.0
2017-Oct-06 00:53N 54°13' E 011°60'0 0.0
2017-Oct-05 23:44N 54°13' E 011°60'0 0.0
2017-Oct-05 22:26N 54°13' E 011°60'0 0.0
2017-Oct-05 19:23N 54°13' E 011°60'0 0.0
2017-Oct-05 18:59N 54°13' E 011°60'0 0.0
2017-Oct-05 18:29N 54°13' E 011°60'0 0.0
2017-Oct-05 12:47N 54°13' E 011°60'0 0.1
2017-Oct-05 12:29N 54°13' E 011°59'  
Track history (hours):
 
Tides and Currents Weather Stations Pressure Air Temp Water Temp Dewpoint Dewpoint Depression Visibility Wind Speed Wind Dir Waves Ship Positions

Federal Barents

Last reported at 2017-Oct-15 10:53 UTC. Time now 2017-Oct-22 08:05 UTC.
Position N 58°46' W 004°28'.

Length 200 m; draft 9.3 m.

Type: Cargo ship. MMSI: 538006419.

Date/timePositionNaut miles runAvg speedWind from/ knotsBaromVisibWave heightAir tempDewpointWater temp
2017-Oct-15 10:53N 58°46' W 004°28'513.2
2017-Oct-15 10:29N 58°46' W 004°17'612.7
2017-Oct-15 10:00N 58°45' W 004°06'612.8
2017-Oct-15 09:30N 58°45' W 003°53'612.2
2017-Oct-15 09:00N 58°44' W 003°42'712.5
2017-Oct-15 08:27N 58°44' W 003°28'612.5
2017-Oct-15 08:00N 58°43' W 003°18'611.4
2017-Oct-15 07:30N 58°43' W 003°07'5 9.3
2017-Oct-15 07:00N 58°40' W 002°59'5 9.3
2017-Oct-15 06:30N 58°37' W 002°53'612.2
2017-Oct-15 06:00N 58°32' W 002°45'713.2
2017-Oct-15 05:30N 58°27' W 002°37'713.3
2017-Oct-15 05:00N 58°23' W 002°27'713.6
2017-Oct-15 04:30N 58°18' W 002°19'713.8
2017-Oct-15 04:00N 58°13' W 002°10'2314.2
2017-Oct-15 02:22N 57°56' W 001°39'514.6
2017-Oct-15 02:00N 57°52' W 001°33'714.8
2017-Oct-15 01:30N 57°47' W 001°23'814.4
2017-Oct-15 00:58N 57°41' W 001°13'39512.8
2017-Oct-13 18:15N 53°46' E 008°10'412.6
2017-Oct-13 17:58N 53°44' E 008°15'511.7
2017-Oct-13 17:30N 53°41' E 008°22'611.0
2017-Oct-13 17:00N 53°37' E 008°29'5 9.1
2017-Oct-13 16:30N 53°33' E 008°33'3 6.3
2017-Oct-13 16:00N 53°30' E 008°31'4 8.2
2017-Oct-13 15:30N 53°26' E 008°30'5 9.1
2017-Oct-13 15:00N 53°22' E 008°30'0 0.8
2017-Oct-13 14:30N 53°21' E 008°30'0 0.0
2017-Oct-13 14:00N 53°21' E 008°30'0 0.0
2017-Oct-13 13:30N 53°21' E 008°30'0 0.0
2017-Oct-13 13:00N 53°21' E 008°30'0 0.0
2017-Oct-13 12:30N 53°21' E 008°30'0 0.0
2017-Oct-13 12:00N 53°21' E 008°30'0 0.0
2017-Oct-13 11:30N 53°21' E 008°30'0 0.0
2017-Oct-13 11:00N 53°21' E 008°30'0 0.0
2017-Oct-13 10:27N 53°21' E 008°30'0 0.0
2017-Oct-13 10:00N 53°21' E 008°30'0 0.0
2017-Oct-13 09:30N 53°21' E 008°30'0 0.0
2017-Oct-13 09:00N 53°21' E 008°30'0 0.0
2017-Oct-13 08:30N 53°21' E 008°30'0 0.0
2017-Oct-13 08:00N 53°21' E 008°30'0 0.0
2017-Oct-13 07:30N 53°21' E 008°30'0 0.0
2017-Oct-13 07:00N 53°21' E 008°30'0 0.0
2017-Oct-13 06:30N 53°21' E 008°30'0 0.0
2017-Oct-13 06:00N 53°21' E 008°30'0 0.0
2017-Oct-13 05:30N 53°21' E 008°30'0 0.0
2017-Oct-13 05:00N 53°21' E 008°30'0 0.0
2017-Oct-13 04:30N 53°21' E 008°30'0 0.0
2017-Oct-13 04:00N 53°21' E 008°30'0 0.0
2017-Oct-13 03:30N 53°21' E 008°30'0 0.0
2017-Oct-13 03:00N 53°21' E 008°30'0 0.0
2017-Oct-13 02:30N 53°21' E 008°30'0 0.0
2017-Oct-13 01:57N 53°21' E 008°30'0 0.0
2017-Oct-13 01:27N 53°21' E 008°30'0 0.0
2017-Oct-13 01:00N 53°21' E 008°30'0 0.0
2017-Oct-13 00:30N 53°21' E 008°30'0 0.0
2017-Oct-13 00:00N 53°21' E 008°30'0 0.0
2017-Oct-12 23:30N 53°21' E 008°30'0 0.0
2017-Oct-12 23:00N 53°21' E 008°30'0 0.0
2017-Oct-12 22:30N 53°21' E 008°30'0 0.0
2017-Oct-12 22:00N 53°21' E 008°30'0 0.0
2017-Oct-12 21:30N 53°21' E 008°30'0 0.0
2017-Oct-12 21:00N 53°21' E 008°30'0 0.0
2017-Oct-12 20:30N 53°21' E 008°30'0 0.0
2017-Oct-12 20:00N 53°21' E 008°30'0 0.0
2017-Oct-12 19:30N 53°21' E 008°30'0 0.0
2017-Oct-12 19:00N 53°21' E 008°30'0 0.0
2017-Oct-12 18:27N 53°21' E 008°30'0 0.0
2017-Oct-12 18:00N 53°21' E 008°30'0 0.0
2017-Oct-12 17:30N 53°21' E 008°30'0 0.0
2017-Oct-12 17:00N 53°21' E 008°30'0 0.0
2017-Oct-12 16:30N 53°21' E 008°30'0 0.0
2017-Oct-12 16:00N 53°21' E 008°30'0 0.0
2017-Oct-12 15:30N 53°21' E 008°30'0 0.0
2017-Oct-12 15:00N 53°21' E 008°30'0 0.0
2017-Oct-12 14:30N 53°21' E 008°30'0 0.0
2017-Oct-12 14:00N 53°21' E 008°30'0 0.0
2017-Oct-12 13:30N 53°21' E 008°30'0 0.0
2017-Oct-12 13:00N 53°21' E 008°30'0 0.0
2017-Oct-12 12:30N 53°21' E 008°30'0 0.0
2017-Oct-12 12:00N 53°21' E 008°30'0 0.0
2017-Oct-12 11:30N 53°21' E 008°30'0 0.0
2017-Oct-12 11:00N 53°21' E 008°30'0 0.0
2017-Oct-12 10:30N 53°21' E 008°30'0 0.0
2017-Oct-12 10:00N 53°21' E 008°30'0 0.0
2017-Oct-12 09:30N 53°21' E 008°30'0 0.0
2017-Oct-12 09:00N 53°21' E 008°30'0 0.0
2017-Oct-12 08:30N 53°21' E 008°30'0 0.0
2017-Oct-12 08:00N 53°21' E 008°30'0 0.0
2017-Oct-12 07:30N 53°21' E 008°30'0 0.0
2017-Oct-12 06:57N 53°21' E 008°30'0 0.0
2017-Oct-12 06:27N 53°21' E 008°30'0 0.0
2017-Oct-12 05:57N 53°21' E 008°30'0 0.0
2017-Oct-12 05:30N 53°21' E 008°30'0 0.0
2017-Oct-12 05:00N 53°21' E 008°30'0 0.0
2017-Oct-12 04:30N 53°21' E 008°30'0 0.0
2017-Oct-12 04:00N 53°21' E 008°30'0 0.0
2017-Oct-12 03:30N 53°21' E 008°30'0 0.0
2017-Oct-12 03:00N 53°21' E 008°30'0 0.0
2017-Oct-12 02:30N 53°21' E 008°30'0 0.0
2017-Oct-12 02:00N 53°21' E 008°30'0 0.0
2017-Oct-12 01:27N 53°21' E 008°30'0 0.0
2017-Oct-12 01:01N 53°21' E 008°30'0 0.2
2017-Oct-12 00:30N 53°22' E 008°30'4 7.0
2017-Oct-12 00:00N 53°25' E 008°30'510.2
2017-Oct-11 23:30N 53°30' E 008°31'4 7.5
2017-Oct-11 23:00N 53°34' E 008°33'5 9.6
2017-Oct-11 22:30N 53°37' E 008°28'611.5
2017-Oct-11 22:00N 53°41' E 008°21'611.9
2017-Oct-11 21:30N 53°45' E 008°13'611.5
2017-Oct-11 21:00N 53°49' E 008°07'612.3
2017-Oct-11 20:30N 53°52' E 007°57'25010.0
2017-Oct-10 19:22N 57°47' E 010°30'411.8
2017-Oct-10 19:01N 57°47' E 010°37'612.1
2017-Oct-10 18:30N 57°48' E 010°49'713.0
2017-Oct-10 18:00N 57°44' E 010°58'714.1
2017-Oct-10 17:30N 57°39' E 011°07'714.1
2017-Oct-10 17:01N 57°34' E 011°17'713.6
2017-Oct-10 16:31N 57°30' E 011°27'714.1
2017-Oct-10 16:00N 57°23' E 011°30'714.1
2017-Oct-10 15:30N 57°16' E 011°34'714.4
2017-Oct-10 15:00N 57°09' E 011°38'2314.1
2017-Oct-10 13:21N 56°48' E 011°53'413.1
2017-Oct-10 13:01N 56°43' E 011°52'714.5
2017-Oct-10 12:30N 56°37' E 011°45'714.1
2017-Oct-10 12:00N 56°31' E 011°38'7611.6
2017-Oct-10 05:26N 55°18' E 011°03'611.8
2017-Oct-10 04:58N 55°12' E 011°06'612.0
2017-Oct-10 04:30N 55°07' E 011°03'612.0
2017-Oct-10 04:00N 55°01' E 011°02'510.9
2017-Oct-10 03:30N 54°57' E 010°55'611.5
2017-Oct-10 03:00N 54°52' E 010°50'611.6
2017-Oct-10 02:30N 54°46' E 010°49'611.3
2017-Oct-10 02:00N 54°41' E 010°47'5 9.6
2017-Oct-10 01:30N 54°38' E 010°54'611.0
2017-Oct-10 01:00N 54°36' E 011°02'612.0
2017-Oct-10 00:30N 54°35' E 011°13'612.9
2017-Oct-10 00:00N 54°32' E 011°23'612.1
2017-Oct-09 23:30N 54°30' E 011°32'612.9
2017-Oct-09 23:00N 54°27' E 011°42'712.3
2017-Oct-09 22:25N 54°23' E 011°52'712.4
2017-Oct-09 21:51N 54°18' E 012°01'10 0.8
2017-Oct-09 10:24N 54°09' E 012°07'0 0.0
2017-Oct-09 09:18N 54°09' E 012°07'0 0.0
2017-Oct-09 00:45N 54°09' E 012°07'0 0.0
2017-Oct-08 08:45N 54°09' E 012°07'0 0.0
2017-Oct-08 08:30N 54°09' E 012°07'0 0.0
2017-Oct-08 08:00N 54°09' E 012°07'0 0.0
2017-Oct-08 05:03N 54°09' E 012°07'0 0.0
2017-Oct-08 02:27N 54°09' E 012°07'0 0.0
2017-Oct-08 01:45N 54°09' E 012°07'0 0.0
2017-Oct-08 01:15N 54°09' E 012°07'0 0.0
2017-Oct-08 01:00N 54°09' E 012°07'0 0.0
2017-Oct-07 15:51N 54°09' E 012°07'0 0.0
2017-Oct-07 14:45N 54°09' E 012°07'0 0.0
2017-Oct-07 14:24N 54°09' E 012°07'0 0.0
2017-Oct-07 13:12N 54°09' E 012°07'0 0.0
2017-Oct-06 17:15N 54°09' E 012°07'0 0.0
2017-Oct-06 15:33N 54°09' E 012°07'0 0.0
2017-Oct-06 15:30N 54°09' E 012°07'0 0.0
2017-Oct-06 15:00N 54°09' E 012°07'6 2.5
2017-Oct-06 12:32N 54°13' E 011°60'0 0.0
2017-Oct-06 12:26N 54°13' E 011°60'0 0.0
2017-Oct-06 11:23N 54°13' E 011°60'0 0.0
2017-Oct-06 10:41N 54°13' E 011°60'0 0.0
2017-Oct-06 10:26N 54°13' E 011°60'0 0.0
2017-Oct-06 09:59N 54°13' E 011°60'0 0.0
2017-Oct-06 09:14N 54°13' E 011°60'0 0.0
2017-Oct-06 08:59N 54°13' E 011°60'0 0.0
2017-Oct-06 07:14N 54°13' E 011°60'0 0.0
2017-Oct-06 06:59N 54°13' E 011°60'0 0.0
2017-Oct-06 03:44N 54°13' E 011°60'0 0.0
2017-Oct-06 03:23N 54°13' E 011°60'0 0.1
2017-Oct-06 02:56N 54°13' E 011°60'0 0.0
2017-Oct-06 00:53N 54°13' E 011°60'0 0.0
2017-Oct-05 23:44N 54°13' E 011°60'0 0.0
2017-Oct-05 22:26N 54°13' E 011°60'0 0.0
2017-Oct-05 19:23N 54°13' E 011°60'0 0.0
2017-Oct-05 18:59N 54°13' E 011°60'0 0.0
2017-Oct-05 18:29N 54°13' E 011°60'0 0.0
2017-Oct-05 12:47N 54°13' E 011°60'0 0.1
2017-Oct-05 12:29N 54°13' E 011°59'  

Dump ship's entire track history